BQO weather

Bouna Airport
Bouna, Zanzan, Côte d'Ivoire

Public forecast

Using degrees Celsius for public forecast. Weather courtesy of forecast.io.

Closest aviation weather report (METAR) to Bouna Airport

Report is more than 6 hours old.

Closest report is Gaoua Airport, 66.9 nm (124.0 km) N. Retrieved 2009/09/21 17:00 UTC (11 years ago):

DFOG 211700Z 18004KT 9999 FEW020 FEW040CB NW NE BKN260 30/23

Closest aviation forecast (TAF) to Bouna Airport

Forecast is more than 6 hours old.

Closest forecast is Bobo Dioulasso Airport, 136.8 nm (253.4 km) NW. Retrieved 2020-05-30 00:09 UTC (9 hours ago):

TAF DFOO 292300Z 3000/3024 18008KT CAVOK TEMPO 3015/3024 4000 TSRA SCT020 SCT033CB